KFAY/FAY METAR and TAF weather

Enter ICAO airport designator
Station Type Date Time Source
KFAY METAR 2019/04/22 23:53 UTC NOAA

KFAY 222353Z 32004KT 10SM CLR 21/08 A3010 RMK AO2 SLP188 T02110078 10239 20211 53003


Station Type Date Time Source
KFAY Decoded METAR 2019/04/22 23:53 UTC NOAA

FAYETTEVILLE REGIONAL AIRPORT , NC, United States (KFAY) 34-59N 078-53W 55M
Apr 22, 2019 - 07:53 PM EDT / 2019.04.22 2353 UTC
Wind: from the NW (320 degrees) at 5 MPH (4 KT):0
Visibility: 10 mile(s):0
Sky conditions: clear
Temperature: 70.0 F (21.1 C)
Dew Point: 46.0 F (7.8 C)
Relative Humidity: 42%
Pressure (altimeter): 30.1 in. Hg (1019 hPa)
Pressure tendency: 0.01 inches (0.3 hPa) higher than three hours ago
ob: KFAY 222353Z 32004KT 10SM CLR 21/08 A3010 RMK AO2 SLP188 T02110078 10239 20211 53003
cycle: 0

Station Type Date Time Source
KFAY TAF 2019/04/22 18:22 UTC NOAA

TAF KFAY 221720Z 2218/2318 VRB04KT P6SM SKC
FM231500 23006KT P6SM SKC

Example: see airport list